<?xml version="1.0" encoding="UTF-8" standalone="no" ?>
<gpx xmlns="http://www.topografix.com/GPX/1/1" xmlns:xsi="http://www.w3.org/2001/XMLSchema-instance" xsi:schemaLocation="http://www.topografix.com/GPX/1/1 http://www.topografix.com/GPX/1/1/gpx.xsd" version="1.1" creator="VisuGPX - https://www.visugpx.com">
  <metadata>
    <name>Refuge de La Glère</name>
    <desc><![CDATA[Montée au refuge la Glère en ski de randonnée au départ de "Chez Louisette"]]></desc>
  </metadata>
  <wpt lat="42.89464" lon="0.08289">
    <ele>1512.53</ele>
    <name><![CDATA[0000048]]></name>
  </wpt>
  <wpt lat="42.85593" lon="0.09202">
    <ele>2149.16</ele>
    <name><![CDATA[0000049]]></name>
  </wpt>
  <trk>
    <name><![CDATA[20180418082326-TpzWF]]></name>
    <trkseg>
      <trkpt lat="42.89464" lon="0.08289">
        <ele>1526</ele>
        <time>2018-04-16T13:53:34Z</time>
      </trkpt>
      <trkpt lat="42.89448" lon="0.08276">
        <ele>1525</ele>
        <time>2018-04-16T13:55:28Z</time>
      </trkpt>
      <trkpt lat="42.8943" lon="0.08271">
        <ele>1523</ele>
        <time>2018-04-16T13:55:44Z</time>
      </trkpt>
      <trkpt lat="42.89412" lon="0.08266">
        <ele>1522</ele>
        <time>2018-04-16T13:56:01Z</time>
      </trkpt>
      <trkpt lat="42.89395" lon="0.08257">
        <ele>1523</ele>
        <time>2018-04-16T13:56:17Z</time>
      </trkpt>
      <trkpt lat="42.89394" lon="0.08231">
        <ele>1521</ele>
        <time>2018-04-16T13:56:36Z</time>
      </trkpt>
      <trkpt lat="42.89404" lon="0.0821">
        <ele>1521</ele>
        <time>2018-04-16T13:56:52Z</time>
      </trkpt>
      <trkpt lat="42.89412" lon="0.08186">
        <ele>1520</ele>
        <time>2018-04-16T13:57:14Z</time>
      </trkpt>
      <trkpt lat="42.89421" lon="0.08165">
        <ele>1516</ele>
        <time>2018-04-16T13:57:33Z</time>
      </trkpt>
      <trkpt lat="42.89414" lon="0.08141">
        <ele>1521</ele>
        <time>2018-04-16T13:57:56Z</time>
      </trkpt>
      <trkpt lat="42.89396" lon="0.08138">
        <ele>1522</ele>
        <time>2018-04-16T14:01:02Z</time>
      </trkpt>
      <trkpt lat="42.89378" lon="0.0814">
        <ele>1524</ele>
        <time>2018-04-16T14:01:24Z</time>
      </trkpt>
      <trkpt lat="42.89361" lon="0.08148">
        <ele>1525</ele>
        <time>2018-04-16T14:01:50Z</time>
      </trkpt>
      <trkpt lat="42.89343" lon="0.08151">
        <ele>1526</ele>
        <time>2018-04-16T14:02:17Z</time>
      </trkpt>
      <trkpt lat="42.89324" lon="0.08151">
        <ele>1536</ele>
        <time>2018-04-16T14:02:45Z</time>
      </trkpt>
      <trkpt lat="42.89306" lon="0.08155">
        <ele>1539</ele>
        <time>2018-04-16T14:03:15Z</time>
      </trkpt>
      <trkpt lat="42.89287" lon="0.08154">
        <ele>1543</ele>
        <time>2018-04-16T14:03:40Z</time>
      </trkpt>
      <trkpt lat="42.89269" lon="0.08151">
        <ele>1546</ele>
        <time>2018-04-16T14:04:03Z</time>
      </trkpt>
      <trkpt lat="42.89251" lon="0.08149">
        <ele>1547</ele>
        <time>2018-04-16T14:04:32Z</time>
      </trkpt>
      <trkpt lat="42.89234" lon="0.08161">
        <ele>1560</ele>
        <time>2018-04-16T14:04:59Z</time>
      </trkpt>
      <trkpt lat="42.89219" lon="0.08173">
        <ele>1558</ele>
        <time>2018-04-16T14:05:22Z</time>
      </trkpt>
      <trkpt lat="42.89203" lon="0.08186">
        <ele>1562</ele>
        <time>2018-04-16T14:05:44Z</time>
      </trkpt>
      <trkpt lat="42.89188" lon="0.08201">
        <ele>1563</ele>
        <time>2018-04-16T14:06:08Z</time>
      </trkpt>
      <trkpt lat="42.89173" lon="0.08216">
        <ele>1562</ele>
        <time>2018-04-16T14:06:31Z</time>
      </trkpt>
      <trkpt lat="42.89155" lon="0.08221">
        <ele>1574</ele>
        <time>2018-04-16T14:06:56Z</time>
      </trkpt>
      <trkpt lat="42.89137" lon="0.08225">
        <ele>1575</ele>
        <time>2018-04-16T14:07:27Z</time>
      </trkpt>
      <trkpt lat="42.89119" lon="0.08232">
        <ele>1577</ele>
        <time>2018-04-16T14:07:50Z</time>
      </trkpt>
      <trkpt lat="42.89103" lon="0.08245">
        <ele>1577</ele>
        <time>2018-04-16T14:08:09Z</time>
      </trkpt>
      <trkpt lat="42.89087" lon="0.08256">
        <ele>1571</ele>
        <time>2018-04-16T14:08:31Z</time>
      </trkpt>
      <trkpt lat="42.8907" lon="0.08267">
        <ele>1573</ele>
        <time>2018-04-16T14:08:52Z</time>
      </trkpt>
      <trkpt lat="42.89052" lon="0.08275">
        <ele>1573</ele>
        <time>2018-04-16T14:09:16Z</time>
      </trkpt>
      <trkpt lat="42.89036" lon="0.08286">
        <ele>1573</ele>
        <time>2018-04-16T14:09:36Z</time>
      </trkpt>
      <trkpt lat="42.89019" lon="0.08278">
        <ele>1577</ele>
        <time>2018-04-16T14:10:01Z</time>
      </trkpt>
      <trkpt lat="42.89001" lon="0.08277">
        <ele>1579</ele>
        <time>2018-04-16T14:10:28Z</time>
      </trkpt>
      <trkpt lat="42.88985" lon="0.08291">
        <ele>1582</ele>
        <time>2018-04-16T14:10:53Z</time>
      </trkpt>
      <trkpt lat="42.88969" lon="0.08308">
        <ele>1580</ele>
        <time>2018-04-16T14:11:06Z</time>
      </trkpt>
      <trkpt lat="42.88951" lon="0.08305">
        <ele>1581</ele>
        <time>2018-04-16T14:11:27Z</time>
      </trkpt>
      <trkpt lat="42.88933" lon="0.08304">
        <ele>1581</ele>
        <time>2018-04-16T14:11:58Z</time>
      </trkpt>
      <trkpt lat="42.88919" lon="0.08321">
        <ele>1577</ele>
        <time>2018-04-16T14:12:13Z</time>
      </trkpt>
      <trkpt lat="42.88902" lon="0.08317">
        <ele>1582</ele>
        <time>2018-04-16T14:12:31Z</time>
      </trkpt>
      <trkpt lat="42.88885" lon="0.08308">
        <ele>1586</ele>
        <time>2018-04-16T14:12:48Z</time>
      </trkpt>
      <trkpt lat="42.88867" lon="0.08313">
        <ele>1586</ele>
        <time>2018-04-16T14:13:12Z</time>
      </trkpt>
      <trkpt lat="42.88853" lon="0.0833">
        <ele>1582</ele>
        <time>2018-04-16T14:13:30Z</time>
      </trkpt>
      <trkpt lat="42.88837" lon="0.08343">
        <ele>1573</ele>
        <time>2018-04-16T14:13:46Z</time>
      </trkpt>
      <trkpt lat="42.88818" lon="0.08348">
        <ele>1574</ele>
        <time>2018-04-16T14:14:03Z</time>
      </trkpt>
      <trkpt lat="42.88801" lon="0.0834">
        <ele>1575</ele>
        <time>2018-04-16T14:14:25Z</time>
      </trkpt>
      <trkpt lat="42.88784" lon="0.08347">
        <ele>1575</ele>
        <time>2018-04-16T14:14:42Z</time>
      </trkpt>
      <trkpt lat="42.88765" lon="0.08353">
        <ele>1576</ele>
        <time>2018-04-16T14:14:57Z</time>
      </trkpt>
      <trkpt lat="42.88747" lon="0.08354">
        <ele>1577</ele>
        <time>2018-04-16T14:15:17Z</time>
      </trkpt>
      <trkpt lat="42.88729" lon="0.08345">
        <ele>1576</ele>
        <time>2018-04-16T14:18:24Z</time>
      </trkpt>
      <trkpt lat="42.88711" lon="0.08342">
        <ele>1575</ele>
        <time>2018-04-16T14:18:42Z</time>
      </trkpt>
      <trkpt lat="42.88694" lon="0.08333">
        <ele>1582</ele>
        <time>2018-04-16T14:19:07Z</time>
      </trkpt>
      <trkpt lat="42.88679" lon="0.08321">
        <ele>1580</ele>
        <time>2018-04-16T14:19:24Z</time>
      </trkpt>
      <trkpt lat="42.88666" lon="0.08304">
        <ele>1580</ele>
        <time>2018-04-16T14:19:39Z</time>
      </trkpt>
      <trkpt lat="42.8865" lon="0.0829">
        <ele>1582</ele>
        <time>2018-04-16T14:19:57Z</time>
      </trkpt>
      <trkpt lat="42.88633" lon="0.08279">
        <ele>1583</ele>
        <time>2018-04-16T14:20:15Z</time>
      </trkpt>
      <trkpt lat="42.88614" lon="0.08276">
        <ele>1583</ele>
        <time>2018-04-16T14:20:36Z</time>
      </trkpt>
      <trkpt lat="42.88596" lon="0.08276">
        <ele>1583</ele>
        <time>2018-04-16T14:20:52Z</time>
      </trkpt>
      <trkpt lat="42.88579" lon="0.08267">
        <ele>1583</ele>
        <time>2018-04-16T14:21:13Z</time>
      </trkpt>
      <trkpt lat="42.8856" lon="0.08261">
        <ele>1582</ele>
        <time>2018-04-16T14:21:35Z</time>
      </trkpt>
      <trkpt lat="42.88541" lon="0.0826">
        <ele>1581</ele>
        <time>2018-04-16T14:21:51Z</time>
      </trkpt>
      <trkpt lat="42.88522" lon="0.08259">
        <ele>1581</ele>
        <time>2018-04-16T14:22:08Z</time>
      </trkpt>
      <trkpt lat="42.88506" lon="0.08245">
        <ele>1587</ele>
        <time>2018-04-16T14:22:29Z</time>
      </trkpt>
      <trkpt lat="42.88491" lon="0.0823">
        <ele>1590</ele>
        <time>2018-04-16T14:22:47Z</time>
      </trkpt>
      <trkpt lat="42.88474" lon="0.08224">
        <ele>1591</ele>
        <time>2018-04-16T14:23:04Z</time>
      </trkpt>
      <trkpt lat="42.88456" lon="0.08218">
        <ele>1592</ele>
        <time>2018-04-16T14:23:24Z</time>
      </trkpt>
      <trkpt lat="42.88438" lon="0.08212">
        <ele>1593</ele>
        <time>2018-04-16T14:23:55Z</time>
      </trkpt>
      <trkpt lat="42.8842" lon="0.08214">
        <ele>1592</ele>
        <time>2018-04-16T14:24:12Z</time>
      </trkpt>
      <trkpt lat="42.88401" lon="0.08214">
        <ele>1592</ele>
        <time>2018-04-16T14:24:39Z</time>
      </trkpt>
      <trkpt lat="42.88383" lon="0.08218">
        <ele>1592</ele>
        <time>2018-04-16T14:25:09Z</time>
      </trkpt>
      <trkpt lat="42.88364" lon="0.08219">
        <ele>1592</ele>
        <time>2018-04-16T14:25:26Z</time>
      </trkpt>
      <trkpt lat="42.88345" lon="0.08215">
        <ele>1593</ele>
        <time>2018-04-16T14:25:46Z</time>
      </trkpt>
      <trkpt lat="42.88326" lon="0.08211">
        <ele>1596</ele>
        <time>2018-04-16T14:26:05Z</time>
      </trkpt>
      <trkpt lat="42.88309" lon="0.08218">
        <ele>1595</ele>
        <time>2018-04-16T14:26:29Z</time>
      </trkpt>
      <trkpt lat="42.88291" lon="0.0822">
        <ele>1596</ele>
        <time>2018-04-16T14:26:51Z</time>
      </trkpt>
      <trkpt lat="42.88272" lon="0.0822">
        <ele>1596</ele>
        <time>2018-04-16T14:27:14Z</time>
      </trkpt>
      <trkpt lat="42.88255" lon="0.08226">
        <ele>1594</ele>
        <time>2018-04-16T14:27:33Z</time>
      </trkpt>
      <trkpt lat="42.88237" lon="0.08231">
        <ele>1597</ele>
        <time>2018-04-16T14:27:48Z</time>
      </trkpt>
      <trkpt lat="42.88219" lon="0.08225">
        <ele>1601</ele>
        <time>2018-04-16T14:28:02Z</time>
      </trkpt>
      <trkpt lat="42.882" lon="0.08218">
        <ele>1603</ele>
        <time>2018-04-16T14:28:27Z</time>
      </trkpt>
      <trkpt lat="42.88182" lon="0.08212">
        <ele>1604</ele>
        <time>2018-04-16T14:28:48Z</time>
      </trkpt>
      <trkpt lat="42.88164" lon="0.0822">
        <ele>1610</ele>
        <time>2018-04-16T14:29:06Z</time>
      </trkpt>
      <trkpt lat="42.88149" lon="0.08234">
        <ele>1608</ele>
        <time>2018-04-16T14:29:25Z</time>
      </trkpt>
      <trkpt lat="42.88132" lon="0.08223">
        <ele>1612</ele>
        <time>2018-04-16T14:29:44Z</time>
      </trkpt>
      <trkpt lat="42.88114" lon="0.08222">
        <ele>1614</ele>
        <time>2018-04-16T14:30:00Z</time>
      </trkpt>
      <trkpt lat="42.88096" lon="0.08234">
        <ele>1614</ele>
        <time>2018-04-16T14:30:19Z</time>
      </trkpt>
      <trkpt lat="42.88079" lon="0.08245">
        <ele>1617</ele>
        <time>2018-04-16T14:30:42Z</time>
      </trkpt>
      <trkpt lat="42.88061" lon="0.08254">
        <ele>1613</ele>
        <time>2018-04-16T14:31:03Z</time>
      </trkpt>
      <trkpt lat="42.88044" lon="0.08263">
        <ele>1613</ele>
        <time>2018-04-16T14:31:27Z</time>
      </trkpt>
      <trkpt lat="42.88027" lon="0.08273">
        <ele>1615</ele>
        <time>2018-04-16T14:31:53Z</time>
      </trkpt>
      <trkpt lat="42.88011" lon="0.08284">
        <ele>1615</ele>
        <time>2018-04-16T14:32:12Z</time>
      </trkpt>
      <trkpt lat="42.87995" lon="0.08296">
        <ele>1623</ele>
        <time>2018-04-16T14:32:32Z</time>
      </trkpt>
      <trkpt lat="42.87978" lon="0.08305">
        <ele>1623</ele>
        <time>2018-04-16T14:32:50Z</time>
      </trkpt>
      <trkpt lat="42.87959" lon="0.08301">
        <ele>1625</ele>
        <time>2018-04-16T14:33:11Z</time>
      </trkpt>
      <trkpt lat="42.87943" lon="0.08289">
        <ele>1628</ele>
        <time>2018-04-16T14:33:32Z</time>
      </trkpt>
      <trkpt lat="42.87924" lon="0.08287">
        <ele>1629</ele>
        <time>2018-04-16T14:33:54Z</time>
      </trkpt>
      <trkpt lat="42.87908" lon="0.08299">
        <ele>1635</ele>
        <time>2018-04-16T14:34:07Z</time>
      </trkpt>
      <trkpt lat="42.87891" lon="0.08308">
        <ele>1634</ele>
        <time>2018-04-16T14:34:22Z</time>
      </trkpt>
      <trkpt lat="42.87872" lon="0.08316">
        <ele>1634</ele>
        <time>2018-04-16T14:34:38Z</time>
      </trkpt>
      <trkpt lat="42.87856" lon="0.08328">
        <ele>1633</ele>
        <time>2018-04-16T14:34:53Z</time>
      </trkpt>
      <trkpt lat="42.87841" lon="0.08344">
        <ele>1626</ele>
        <time>2018-04-16T14:35:09Z</time>
      </trkpt>
      <trkpt lat="42.87826" lon="0.08359">
        <ele>1630</ele>
        <time>2018-04-16T14:35:26Z</time>
      </trkpt>
      <trkpt lat="42.87808" lon="0.08369">
        <ele>1631</ele>
        <time>2018-04-16T14:35:46Z</time>
      </trkpt>
      <trkpt lat="42.87791" lon="0.0838">
        <ele>1632</ele>
        <time>2018-04-16T14:36:03Z</time>
      </trkpt>
      <trkpt lat="42.87774" lon="0.08389">
        <ele>1633</ele>
        <time>2018-04-16T14:36:22Z</time>
      </trkpt>
      <trkpt lat="42.87756" lon="0.08397">
        <ele>1634</ele>
        <time>2018-04-16T14:36:40Z</time>
      </trkpt>
      <trkpt lat="42.87738" lon="0.08398">
        <ele>1640</ele>
        <time>2018-04-16T14:36:56Z</time>
      </trkpt>
      <trkpt lat="42.8772" lon="0.08404">
        <ele>1640</ele>
        <time>2018-04-16T14:37:14Z</time>
      </trkpt>
      <trkpt lat="42.877" lon="0.08404">
        <ele>1641</ele>
        <time>2018-04-16T14:37:33Z</time>
      </trkpt>
      <trkpt lat="42.87682" lon="0.08406">
        <ele>1640</ele>
        <time>2018-04-16T14:37:48Z</time>
      </trkpt>
      <trkpt lat="42.87663" lon="0.08409">
        <ele>1642</ele>
        <time>2018-04-16T14:38:08Z</time>
      </trkpt>
      <trkpt lat="42.87645" lon="0.08416">
        <ele>1646</ele>
        <time>2018-04-16T14:38:27Z</time>
      </trkpt>
      <trkpt lat="42.87628" lon="0.08425">
        <ele>1640</ele>
        <time>2018-04-16T14:38:46Z</time>
      </trkpt>
      <trkpt lat="42.87609" lon="0.08429">
        <ele>1641</ele>
        <time>2018-04-16T14:39:04Z</time>
      </trkpt>
      <trkpt lat="42.8759" lon="0.0843">
        <ele>1643</ele>
        <time>2018-04-16T14:41:15Z</time>
      </trkpt>
      <trkpt lat="42.87572" lon="0.08437">
        <ele>1649</ele>
        <time>2018-04-16T14:41:52Z</time>
      </trkpt>
      <trkpt lat="42.87555" lon="0.08444">
        <ele>1650</ele>
        <time>2018-04-16T14:42:10Z</time>
      </trkpt>
      <trkpt lat="42.8754" lon="0.08459">
        <ele>1651</ele>
        <time>2018-04-16T14:42:30Z</time>
      </trkpt>
      <trkpt lat="42.87525" lon="0.08474">
        <ele>1651</ele>
        <time>2018-04-16T14:42:51Z</time>
      </trkpt>
      <trkpt lat="42.87515" lon="0.08494">
        <ele>1650</ele>
        <time>2018-04-16T14:43:11Z</time>
      </trkpt>
      <trkpt lat="42.87516" lon="0.08519">
        <ele>1649</ele>
        <time>2018-04-16T14:43:34Z</time>
      </trkpt>
      <trkpt lat="42.87504" lon="0.08538">
        <ele>1649</ele>
        <time>2018-04-16T14:43:56Z</time>
      </trkpt>
      <trkpt lat="42.87487" lon="0.08548">
        <ele>1653</ele>
        <time>2018-04-16T14:44:16Z</time>
      </trkpt>
      <trkpt lat="42.87468" lon="0.08551">
        <ele>1655</ele>
        <time>2018-04-16T14:44:42Z</time>
      </trkpt>
      <trkpt lat="42.8745" lon="0.08549">
        <ele>1657</ele>
        <time>2018-04-16T14:45:13Z</time>
      </trkpt>
      <trkpt lat="42.87435" lon="0.08564">
        <ele>1657</ele>
        <time>2018-04-16T14:45:55Z</time>
      </trkpt>
      <trkpt lat="42.87421" lon="0.08579">
        <ele>1657</ele>
        <time>2018-04-16T14:46:22Z</time>
      </trkpt>
      <trkpt lat="42.87408" lon="0.08604">
        <ele>1666</ele>
        <time>2018-04-16T14:46:51Z</time>
      </trkpt>
      <trkpt lat="42.87391" lon="0.08617">
        <ele>1670</ele>
        <time>2018-04-16T14:47:16Z</time>
      </trkpt>
      <trkpt lat="42.87373" lon="0.0861">
        <ele>1672</ele>
        <time>2018-04-16T14:47:37Z</time>
      </trkpt>
      <trkpt lat="42.87368" lon="0.08586">
        <ele>1673</ele>
        <time>2018-04-16T14:47:59Z</time>
      </trkpt>
      <trkpt lat="42.8735" lon="0.08587">
        <ele>1677</ele>
        <time>2018-04-16T14:48:35Z</time>
      </trkpt>
      <trkpt lat="42.87331" lon="0.08592">
        <ele>1683</ele>
        <time>2018-04-16T14:48:57Z</time>
      </trkpt>
      <trkpt lat="42.87316" lon="0.08608">
        <ele>1685</ele>
        <time>2018-04-16T14:49:21Z</time>
      </trkpt>
      <trkpt lat="42.87299" lon="0.086">
        <ele>1686</ele>
        <time>2018-04-16T14:50:15Z</time>
      </trkpt>
      <trkpt lat="42.87282" lon="0.08592">
        <ele>1687</ele>
        <time>2018-04-16T14:50:38Z</time>
      </trkpt>
      <trkpt lat="42.87263" lon="0.0859">
        <ele>1689</ele>
        <time>2018-04-16T14:51:02Z</time>
      </trkpt>
      <trkpt lat="42.87245" lon="0.08593">
        <ele>1695</ele>
        <time>2018-04-16T14:51:21Z</time>
      </trkpt>
      <trkpt lat="42.87226" lon="0.08596">
        <ele>1698</ele>
        <time>2018-04-16T14:52:00Z</time>
      </trkpt>
      <trkpt lat="42.87208" lon="0.08598">
        <ele>1700</ele>
        <time>2018-04-16T14:52:53Z</time>
      </trkpt>
      <trkpt lat="42.8719" lon="0.08598">
        <ele>1704</ele>
        <time>2018-04-16T14:53:37Z</time>
      </trkpt>
      <trkpt lat="42.87172" lon="0.08604">
        <ele>1705</ele>
        <time>2018-04-16T14:54:03Z</time>
      </trkpt>
      <trkpt lat="42.87154" lon="0.08609">
        <ele>1719</ele>
        <time>2018-04-16T14:54:43Z</time>
      </trkpt>
      <trkpt lat="42.87151" lon="0.08584">
        <ele>1718</ele>
        <time>2018-04-16T14:55:20Z</time>
      </trkpt>
      <trkpt lat="42.87133" lon="0.08592">
        <ele>1723</ele>
        <time>2018-04-16T14:55:43Z</time>
      </trkpt>
      <trkpt lat="42.87123" lon="0.08572">
        <ele>1734</ele>
        <time>2018-04-16T14:56:44Z</time>
      </trkpt>
      <trkpt lat="42.87104" lon="0.08572">
        <ele>1737</ele>
        <time>2018-04-16T14:57:21Z</time>
      </trkpt>
      <trkpt lat="42.87086" lon="0.0858">
        <ele>1740</ele>
        <time>2018-04-16T14:57:50Z</time>
      </trkpt>
      <trkpt lat="42.87074" lon="0.08562">
        <ele>1757</ele>
        <time>2018-04-16T14:58:34Z</time>
      </trkpt>
      <trkpt lat="42.87055" lon="0.0857">
        <ele>1761</ele>
        <time>2018-04-16T14:59:12Z</time>
      </trkpt>
      <trkpt lat="42.87039" lon="0.08581">
        <ele>1765</ele>
        <time>2018-04-16T14:59:41Z</time>
      </trkpt>
      <trkpt lat="42.87027" lon="0.08599">
        <ele>1761</ele>
        <time>2018-04-16T15:00:12Z</time>
      </trkpt>
      <trkpt lat="42.87011" lon="0.08611">
        <ele>1763</ele>
        <time>2018-04-16T15:00:39Z</time>
      </trkpt>
      <trkpt lat="42.86992" lon="0.08607">
        <ele>1786</ele>
        <time>2018-04-16T15:01:58Z</time>
      </trkpt>
      <trkpt lat="42.86994" lon="0.08582">
        <ele>1784</ele>
        <time>2018-04-16T15:02:32Z</time>
      </trkpt>
      <trkpt lat="42.86979" lon="0.08597">
        <ele>1788</ele>
        <time>2018-04-16T15:03:21Z</time>
      </trkpt>
      <trkpt lat="42.86962" lon="0.08608">
        <ele>1793</ele>
        <time>2018-04-16T15:03:56Z</time>
      </trkpt>
      <trkpt lat="42.86952" lon="0.08629">
        <ele>1794</ele>
        <time>2018-04-16T15:04:30Z</time>
      </trkpt>
      <trkpt lat="42.86942" lon="0.0865">
        <ele>1796</ele>
        <time>2018-04-16T15:04:53Z</time>
      </trkpt>
      <trkpt lat="42.86931" lon="0.08672">
        <ele>1794</ele>
        <time>2018-04-16T15:05:17Z</time>
      </trkpt>
      <trkpt lat="42.86924" lon="0.08695">
        <ele>1789</ele>
        <time>2018-04-16T15:05:36Z</time>
      </trkpt>
      <trkpt lat="42.86908" lon="0.08709">
        <ele>1812</ele>
        <time>2018-04-16T15:06:05Z</time>
      </trkpt>
      <trkpt lat="42.86893" lon="0.08723">
        <ele>1813</ele>
        <time>2018-04-16T15:06:24Z</time>
      </trkpt>
      <trkpt lat="42.86875" lon="0.08734">
        <ele>1817</ele>
        <time>2018-04-16T15:06:50Z</time>
      </trkpt>
      <trkpt lat="42.86861" lon="0.08751">
        <ele>1814</ele>
        <time>2018-04-16T15:07:14Z</time>
      </trkpt>
      <trkpt lat="42.86847" lon="0.08767">
        <ele>1818</ele>
        <time>2018-04-16T15:07:41Z</time>
      </trkpt>
      <trkpt lat="42.86831" lon="0.08775">
        <ele>1839</ele>
        <time>2018-04-16T15:08:44Z</time>
      </trkpt>
      <trkpt lat="42.86839" lon="0.08751">
        <ele>1828</ele>
        <time>2018-04-16T15:09:35Z</time>
      </trkpt>
      <trkpt lat="42.86846" lon="0.08728">
        <ele>1825</ele>
        <time>2018-04-16T15:10:08Z</time>
      </trkpt>
      <trkpt lat="42.86852" lon="0.08704">
        <ele>1826</ele>
        <time>2018-04-16T15:10:46Z</time>
      </trkpt>
      <trkpt lat="42.86858" lon="0.0868">
        <ele>1829</ele>
        <time>2018-04-16T15:11:32Z</time>
      </trkpt>
      <trkpt lat="42.86842" lon="0.08669">
        <ele>1841</ele>
        <time>2018-04-16T15:15:59Z</time>
      </trkpt>
      <trkpt lat="42.86824" lon="0.08678">
        <ele>1853</ele>
        <time>2018-04-16T15:16:36Z</time>
      </trkpt>
      <trkpt lat="42.8681" lon="0.08694">
        <ele>1856</ele>
        <time>2018-04-16T15:17:10Z</time>
      </trkpt>
      <trkpt lat="42.86795" lon="0.08709">
        <ele>1857</ele>
        <time>2018-04-16T15:17:51Z</time>
      </trkpt>
      <trkpt lat="42.8678" lon="0.08724">
        <ele>1859</ele>
        <time>2018-04-16T15:18:19Z</time>
      </trkpt>
      <trkpt lat="42.86761" lon="0.08721">
        <ele>1862</ele>
        <time>2018-04-16T15:19:49Z</time>
      </trkpt>
      <trkpt lat="42.86743" lon="0.08721">
        <ele>1882</ele>
        <time>2018-04-16T15:20:17Z</time>
      </trkpt>
      <trkpt lat="42.86728" lon="0.08738">
        <ele>1881</ele>
        <time>2018-04-16T15:20:38Z</time>
      </trkpt>
      <trkpt lat="42.86712" lon="0.08751">
        <ele>1879</ele>
        <time>2018-04-16T15:21:06Z</time>
      </trkpt>
      <trkpt lat="42.86693" lon="0.08753">
        <ele>1884</ele>
        <time>2018-04-16T15:21:55Z</time>
      </trkpt>
      <trkpt lat="42.86675" lon="0.08756">
        <ele>1890</ele>
        <time>2018-04-16T15:22:31Z</time>
      </trkpt>
      <trkpt lat="42.86656" lon="0.0876">
        <ele>1904</ele>
        <time>2018-04-16T15:22:58Z</time>
      </trkpt>
      <trkpt lat="42.86639" lon="0.0877">
        <ele>1912</ele>
        <time>2018-04-16T15:23:25Z</time>
      </trkpt>
      <trkpt lat="42.86624" lon="0.08784">
        <ele>1916</ele>
        <time>2018-04-16T15:23:45Z</time>
      </trkpt>
      <trkpt lat="42.86611" lon="0.08802">
        <ele>1918</ele>
        <time>2018-04-16T15:24:22Z</time>
      </trkpt>
      <trkpt lat="42.86606" lon="0.08825">
        <ele>1920</ele>
        <time>2018-04-16T15:24:58Z</time>
      </trkpt>
      <trkpt lat="42.86605" lon="0.0885">
        <ele>1921</ele>
        <time>2018-04-16T15:25:34Z</time>
      </trkpt>
      <trkpt lat="42.86615" lon="0.08871">
        <ele>1920</ele>
        <time>2018-04-16T15:26:15Z</time>
      </trkpt>
      <trkpt lat="42.86609" lon="0.08895">
        <ele>1923</ele>
        <time>2018-04-16T15:27:44Z</time>
      </trkpt>
      <trkpt lat="42.86591" lon="0.08894">
        <ele>1927</ele>
        <time>2018-04-16T15:28:18Z</time>
      </trkpt>
      <trkpt lat="42.86576" lon="0.08879">
        <ele>1954</ele>
        <time>2018-04-16T15:29:00Z</time>
      </trkpt>
      <trkpt lat="42.86557" lon="0.08884">
        <ele>1959</ele>
        <time>2018-04-16T15:29:48Z</time>
      </trkpt>
      <trkpt lat="42.86538" lon="0.08881">
        <ele>1965</ele>
        <time>2018-04-16T15:31:11Z</time>
      </trkpt>
      <trkpt lat="42.86521" lon="0.08873">
        <ele>1971</ele>
        <time>2018-04-16T15:32:23Z</time>
      </trkpt>
      <trkpt lat="42.86509" lon="0.08855">
        <ele>1976</ele>
        <time>2018-04-16T15:33:04Z</time>
      </trkpt>
      <trkpt lat="42.8651" lon="0.08879">
        <ele>1974</ele>
        <time>2018-04-16T15:33:42Z</time>
      </trkpt>
      <trkpt lat="42.86492" lon="0.08884">
        <ele>2007</ele>
        <time>2018-04-16T15:35:25Z</time>
      </trkpt>
      <trkpt lat="42.86474" lon="0.08889">
        <ele>2010</ele>
        <time>2018-04-16T15:37:47Z</time>
      </trkpt>
      <trkpt lat="42.86461" lon="0.08872">
        <ele>2013</ele>
        <time>2018-04-16T15:38:24Z</time>
      </trkpt>
      <trkpt lat="42.86451" lon="0.08894">
        <ele>2016</ele>
        <time>2018-04-16T15:39:15Z</time>
      </trkpt>
      <trkpt lat="42.86447" lon="0.08918">
        <ele>2020</ele>
        <time>2018-04-16T15:39:45Z</time>
      </trkpt>
      <trkpt lat="42.8643" lon="0.08929">
        <ele>2026</ele>
        <time>2018-04-16T15:51:10Z</time>
      </trkpt>
      <trkpt lat="42.86416" lon="0.08944">
        <ele>2042</ele>
        <time>2018-04-16T15:51:41Z</time>
      </trkpt>
      <trkpt lat="42.86398" lon="0.08954">
        <ele>2044</ele>
        <time>2018-04-16T15:52:24Z</time>
      </trkpt>
      <trkpt lat="42.86381" lon="0.08963">
        <ele>2046</ele>
        <time>2018-04-16T15:52:44Z</time>
      </trkpt>
      <trkpt lat="42.86366" lon="0.08975">
        <ele>2048</ele>
        <time>2018-04-16T15:53:14Z</time>
      </trkpt>
      <trkpt lat="42.86356" lon="0.08997">
        <ele>2051</ele>
        <time>2018-04-16T15:53:52Z</time>
      </trkpt>
      <trkpt lat="42.86349" lon="0.0902">
        <ele>2049</ele>
        <time>2018-04-16T15:54:27Z</time>
      </trkpt>
      <trkpt lat="42.86339" lon="0.09041">
        <ele>2047</ele>
        <time>2018-04-16T15:54:47Z</time>
      </trkpt>
      <trkpt lat="42.86327" lon="0.09061">
        <ele>2065</ele>
        <time>2018-04-16T15:55:06Z</time>
      </trkpt>
      <trkpt lat="42.86309" lon="0.09067">
        <ele>2068</ele>
        <time>2018-04-16T15:55:41Z</time>
      </trkpt>
      <trkpt lat="42.86293" lon="0.09078">
        <ele>2072</ele>
        <time>2018-04-16T15:56:17Z</time>
      </trkpt>
      <trkpt lat="42.86275" lon="0.09082">
        <ele>2076</ele>
        <time>2018-04-16T15:57:00Z</time>
      </trkpt>
      <trkpt lat="42.86258" lon="0.09091">
        <ele>2078</ele>
        <time>2018-04-16T15:57:28Z</time>
      </trkpt>
      <trkpt lat="42.86239" lon="0.0909">
        <ele>2087</ele>
        <time>2018-04-16T15:58:07Z</time>
      </trkpt>
      <trkpt lat="42.86221" lon="0.09096">
        <ele>2091</ele>
        <time>2018-04-16T15:58:41Z</time>
      </trkpt>
      <trkpt lat="42.86204" lon="0.09104">
        <ele>2094</ele>
        <time>2018-04-16T15:59:12Z</time>
      </trkpt>
      <trkpt lat="42.86188" lon="0.09115">
        <ele>2096</ele>
        <time>2018-04-16T15:59:40Z</time>
      </trkpt>
      <trkpt lat="42.86179" lon="0.09094">
        <ele>2100</ele>
        <time>2018-04-16T16:00:52Z</time>
      </trkpt>
      <trkpt lat="42.8618" lon="0.09069">
        <ele>2105</ele>
        <time>2018-04-16T16:01:34Z</time>
      </trkpt>
      <trkpt lat="42.86166" lon="0.09054">
        <ele>2122</ele>
        <time>2018-04-16T16:02:23Z</time>
      </trkpt>
      <trkpt lat="42.86155" lon="0.09033">
        <ele>2128</ele>
        <time>2018-04-16T16:03:30Z</time>
      </trkpt>
      <trkpt lat="42.86138" lon="0.0904">
        <ele>2129</ele>
        <time>2018-04-16T16:04:14Z</time>
      </trkpt>
      <trkpt lat="42.86123" lon="0.09054">
        <ele>2130</ele>
        <time>2018-04-16T16:04:43Z</time>
      </trkpt>
      <trkpt lat="42.86105" lon="0.09063">
        <ele>2132</ele>
        <time>2018-04-16T16:05:17Z</time>
      </trkpt>
      <trkpt lat="42.8611" lon="0.09037">
        <ele>2134</ele>
        <time>2018-04-16T16:06:56Z</time>
      </trkpt>
      <trkpt lat="42.86108" lon="0.09063">
        <ele>2131</ele>
        <time>2018-04-16T16:08:53Z</time>
      </trkpt>
    </trkseg>
  </trk>
  <trk>
    <name><![CDATA[20180418082326-TpzWF]]></name>
    <trkseg>
      <trkpt lat="42.86108" lon="0.09063">
        <ele>2131</ele>
        <time>2018-04-16T16:08:53Z</time>
      </trkpt>
      <trkpt lat="42.86095" lon="0.09045">
        <ele>2135</ele>
        <time>2018-04-16T16:09:07Z</time>
      </trkpt>
      <trkpt lat="42.86108" lon="0.09065">
        <ele>2131</ele>
        <time>2018-04-16T16:09:31Z</time>
      </trkpt>
    </trkseg>
  </trk>
</gpx>